sensor_id;sensor_type;location;lat;lon;timestamp;P1;durP1;ratioP1;P2;durP2;ratioP2
35757;SDS011;21879;50.110;18.900;2022-08-19T00:02:34;11.90;;;10.60;;
35757;SDS011;21879;50.110;18.900;2022-08-19T00:13:14;12.00;;;10.70;;
35757;SDS011;21879;50.110;18.900;2022-08-19T00:23:44;12.80;;;11.40;;
35757;SDS011;21879;50.110;18.900;2022-08-19T00:34:14;12.80;;;11.40;;
35757;SDS011;21879;50.110;18.900;2022-08-19T00:44:43;12.80;;;10.90;;
35757;SDS011;21879;50.110;18.900;2022-08-19T00:55:14;13.50;;;11.40;;
35757;SDS011;21879;50.110;18.900;2022-08-19T01:05:45;12.40;;;11.10;;
35757;SDS011;21879;50.110;18.900;2022-08-19T01:16:17;15.20;;;12.60;;
35757;SDS011;21879;50.110;18.900;2022-08-19T01:26:49;14.40;;;12.90;;
35757;SDS011;21879;50.110;18.900;2022-08-19T01:37:19;15.60;;;12.80;;
35757;SDS011;21879;50.110;18.900;2022-08-19T01:47:51;14.70;;;13.20;;
35757;SDS011;21879;50.110;18.900;2022-08-19T01:58:27;14.40;;;12.90;;
35757;SDS011;21879;50.110;18.900;2022-08-19T02:08:59;13.70;;;11.50;;
35757;SDS011;21879;50.110;18.900;2022-08-19T02:19:28;17.20;;;13.20;;
35757;SDS011;21879;50.110;18.900;2022-08-19T02:29:58;18.00;;;13.40;;
35757;SDS011;21879;50.110;18.900;2022-08-19T02:40:27;15.20;;;13.70;;
35757;SDS011;21879;50.110;18.900;2022-08-19T02:50:59;18.90;;;15.30;;
35757;SDS011;21879;50.110;18.900;2022-08-19T03:01:28;16.30;;;14.80;;
35757;SDS011;21879;50.110;18.900;2022-08-19T03:11:59;18.10;;;14.90;;
35757;SDS011;21879;50.110;18.900;2022-08-19T03:22:29;24.20;;;21.50;;
35757;SDS011;21879;50.110;18.900;2022-08-19T03:32:58;17.20;;;15.50;;
35757;SDS011;21879;50.110;18.900;2022-08-19T03:43:29;16.30;;;13.70;;
35757;SDS011;21879;50.110;18.900;2022-08-19T03:53:59;15.60;;;13.90;;
35757;SDS011;21879;50.110;18.900;2022-08-19T04:04:30;16.90;;;14.60;;
35757;SDS011;21879;50.110;18.900;2022-08-19T04:15:00;16.10;;;14.50;;
35757;SDS011;21879;50.110;18.900;2022-08-19T04:25:34;16.20;;;14.50;;
35757;SDS011;21879;50.110;18.900;2022-08-19T04:36:04;17.70;;;15.70;;
35757;SDS011;21879;50.110;18.900;2022-08-19T04:46:35;17.80;;;16.10;;
35757;SDS011;21879;50.110;18.900;2022-08-19T04:57:15;17.80;;;14.70;;
35757;SDS011;21879;50.110;18.900;2022-08-19T05:07:44;16.30;;;14.60;;
35757;SDS011;21879;50.110;18.900;2022-08-19T05:18:13;16.00;;;14.40;;
35757;SDS011;21879;50.110;18.900;2022-08-19T05:39:28;16.60;;;14.30;;
35757;SDS011;21879;50.110;18.900;2022-08-19T05:49:58;15.90;;;14.20;;
35757;SDS011;21879;50.110;18.900;2022-08-19T06:00:29;15.90;;;14.30;;
35757;SDS011;21879;50.110;18.900;2022-08-19T06:10:58;15.60;;;14.00;;
35757;SDS011;21879;50.110;18.900;2022-08-19T06:21:42;15.40;;;13.90;;
35757;SDS011;21879;50.110;18.900;2022-08-19T06:32:12;17.60;;;15.80;;
35757;SDS011;21879;50.110;18.900;2022-08-19T06:42:44;15.10;;;13.50;;
35757;SDS011;21879;50.110;18.900;2022-08-19T06:53:19;15.60;;;13.80;;
35757;SDS011;21879;50.110;18.900;2022-08-19T07:03:48;15.00;;;13.60;;
35757;SDS011;21879;50.110;18.900;2022-08-19T07:14:18;16.50;;;13.80;;
35757;SDS011;21879;50.110;18.900;2022-08-19T07:24:50;15.50;;;13.80;;
35757;SDS011;21879;50.110;18.900;2022-08-19T07:35:19;14.70;;;13.10;;
35757;SDS011;21879;50.110;18.900;2022-08-19T07:45:49;14.40;;;13.00;;
35757;SDS011;21879;50.110;18.900;2022-08-19T07:56:18;14.60;;;12.90;;
35757;SDS011;21879;50.110;18.900;2022-08-19T08:06:49;14.80;;;13.30;;
35757;SDS011;21879;50.110;18.900;2022-08-19T08:17:35;14.20;;;12.80;;
35757;SDS011;21879;50.110;18.900;2022-08-19T08:28:14;18.00;;;13.10;;
35757;SDS011;21879;50.110;18.900;2022-08-19T08:38:43;15.60;;;13.60;;
35757;SDS011;21879;50.110;18.900;2022-08-19T08:49:17;17.30;;;12.50;;
35757;SDS011;21879;50.110;18.900;2022-08-19T08:59:53;15.50;;;12.90;;
35757;SDS011;21879;50.110;18.900;2022-08-19T09:10:27;13.40;;;11.90;;
35757;SDS011;21879;50.110;18.900;2022-08-19T09:21:08;13.60;;;12.30;;
35757;SDS011;21879;50.110;18.900;2022-08-19T09:31:37;12.40;;;11.10;;
35757;SDS011;21879;50.110;18.900;2022-08-19T09:42:07;17.00;;;11.80;;
35757;SDS011;21879;50.110;18.900;2022-08-19T09:52:44;15.10;;;12.70;;
35757;SDS011;21879;50.110;18.900;2022-08-19T10:03:21;12.90;;;11.60;;
35757;SDS011;21879;50.110;18.900;2022-08-19T10:13:54;12.70;;;11.10;;
35757;SDS011;21879;50.110;18.900;2022-08-19T10:24:23;14.10;;;11.80;;
35757;SDS011;21879;50.110;18.900;2022-08-19T10:34:53;11.70;;;10.40;;
35757;SDS011;21879;50.110;18.900;2022-08-19T10:45:23;12.50;;;10.90;;
35757;SDS011;21879;50.110;18.900;2022-08-19T10:55:52;13.10;;;10.60;;
35757;SDS011;21879;50.110;18.900;2022-08-19T11:06:40;12.20;;;9.80;;
35757;SDS011;21879;50.110;18.900;2022-08-19T11:17:10;11.80;;;10.20;;
35757;SDS011;21879;50.110;18.900;2022-08-19T11:27:41;15.70;;;8.40;;
35757;SDS011;21879;50.110;18.900;2022-08-19T11:38:11;12.70;;;9.50;;
35757;SDS011;21879;50.110;18.900;2022-08-19T11:48:40;12.30;;;10.30;;
35757;SDS011;21879;50.110;18.900;2022-08-19T11:59:11;11.10;;;7.40;;
35757;SDS011;21879;50.110;18.900;2022-08-19T12:09:40;13.30;;;8.80;;
35757;SDS011;21879;50.110;18.900;2022-08-19T12:20:13;10.60;;;9.30;;
35757;SDS011;21879;50.110;18.900;2022-08-19T12:30:42;10.90;;;8.90;;
35757;SDS011;21879;50.110;18.900;2022-08-19T12:41:12;10.00;;;8.00;;
35757;SDS011;21879;50.110;18.900;2022-08-19T12:51:43;11.10;;;8.50;;
35757;SDS011;21879;50.110;18.900;2022-08-19T13:02:12;10.40;;;8.30;;
35757;SDS011;21879;50.110;18.900;2022-08-19T13:12:41;12.70;;;8.90;;
35757;SDS011;21879;50.110;18.900;2022-08-19T13:23:11;8.30;;;7.20;;
35757;SDS011;21879;50.110;18.900;2022-08-19T13:33:40;11.40;;;7.80;;
35757;SDS011;21879;50.110;18.900;2022-08-19T13:44:10;9.80;;;7.40;;
35757;SDS011;21879;50.110;18.900;2022-08-19T13:54:39;8.30;;;6.80;;
35757;SDS011;21879;50.110;18.900;2022-08-19T14:05:10;13.80;;;8.40;;
35757;SDS011;21879;50.110;18.900;2022-08-19T14:15:40;11.60;;;8.20;;
35757;SDS011;21879;50.110;18.900;2022-08-19T14:26:11;12.30;;;8.10;;
35757;SDS011;21879;50.110;18.900;2022-08-19T14:36:41;8.90;;;8.00;;
35757;SDS011;21879;50.110;18.900;2022-08-19T14:47:14;11.00;;;7.60;;
35757;SDS011;21879;50.110;18.900;2022-08-19T14:57:43;11.00;;;8.20;;
35757;SDS011;21879;50.110;18.900;2022-08-19T15:08:13;13.70;;;7.60;;
35757;SDS011;21879;50.110;18.900;2022-08-19T15:18:42;14.30;;;8.20;;
35757;SDS011;21879;50.110;18.900;2022-08-19T15:29:12;10.30;;;8.20;;
35757;SDS011;21879;50.110;18.900;2022-08-19T15:39:41;8.80;;;7.90;;
35757;SDS011;21879;50.110;18.900;2022-08-19T15:50:12;10.80;;;9.00;;
35757;SDS011;21879;50.110;18.900;2022-08-19T16:00:43;10.00;;;8.60;;
35757;SDS011;21879;50.110;18.900;2022-08-19T16:11:37;12.60;;;7.20;;
35757;SDS011;21879;50.110;18.900;2022-08-19T16:22:10;11.20;;;8.90;;
35757;SDS011;21879;50.110;18.900;2022-08-19T16:32:42;9.70;;;8.00;;
35757;SDS011;21879;50.110;18.900;2022-08-19T16:43:12;10.70;;;9.60;;
35757;SDS011;21879;50.110;18.900;2022-08-19T16:53:41;11.20;;;10.00;;
35757;SDS011;21879;50.110;18.900;2022-08-19T17:04:11;11.30;;;9.70;;
35757;SDS011;21879;50.110;18.900;2022-08-19T17:14:40;15.30;;;10.70;;
35757;SDS011;21879;50.110;18.900;2022-08-19T17:25:10;13.90;;;9.80;;
35757;SDS011;21879;50.110;18.900;2022-08-19T17:35:40;13.20;;;10.60;;
35757;SDS011;21879;50.110;18.900;2022-08-19T17:56:16;9.30;;;5.20;;
35757;SDS011;21879;50.110;18.900;2022-08-19T18:06:46;6.80;;;4.70;;
35757;SDS011;21879;50.110;18.900;2022-08-19T18:17:19;9.40;;;7.00;;
35757;SDS011;21879;50.110;18.900;2022-08-19T18:27:50;11.80;;;8.30;;
35757;SDS011;21879;50.110;18.900;2022-08-19T18:38:21;11.30;;;6.70;;
35757;SDS011;21879;50.110;18.900;2022-08-19T18:49:07;9.00;;;6.30;;
35757;SDS011;21879;50.110;18.900;2022-08-19T18:59:37;11.20;;;6.80;;
35757;SDS011;21879;50.110;18.900;2022-08-19T19:10:07;10.70;;;6.90;;
35757;SDS011;21879;50.110;18.900;2022-08-19T19:20:36;11.60;;;7.70;;
35757;SDS011;21879;50.110;18.900;2022-08-19T19:31:06;11.10;;;7.90;;
35757;SDS011;21879;50.110;18.900;2022-08-19T19:41:37;11.40;;;8.30;;
35757;SDS011;21879;50.110;18.900;2022-08-19T19:52:06;12.60;;;9.30;;
35757;SDS011;21879;50.110;18.900;2022-08-19T20:02:38;13.90;;;9.60;;
35757;SDS011;21879;50.110;18.900;2022-08-19T20:23:41;11.30;;;9.40;;
35757;SDS011;21879;50.110;18.900;2022-08-19T20:34:30;13.50;;;10.70;;
35757;SDS011;21879;50.110;18.900;2022-08-19T20:45:00;9.90;;;8.60;;
35757;SDS011;21879;50.110;18.900;2022-08-19T20:55:34;11.90;;;8.80;;
35757;SDS011;21879;50.110;18.900;2022-08-19T21:06:03;11.70;;;10.10;;
35757;SDS011;21879;50.110;18.900;2022-08-19T21:16:32;12.80;;;10.20;;
35757;SDS011;21879;50.110;18.900;2022-08-19T21:27:01;12.50;;;10.80;;
35757;SDS011;21879;50.110;18.900;2022-08-19T21:37:30;12.90;;;11.30;;
35757;SDS011;21879;50.110;18.900;2022-08-19T21:48:00;12.80;;;9.30;;
35757;SDS011;21879;50.110;18.900;2022-08-19T21:58:29;11.60;;;9.60;;
35757;SDS011;21879;50.110;18.900;2022-08-19T22:08:59;12.10;;;9.80;;
35757;SDS011;21879;50.110;18.900;2022-08-19T22:19:28;11.60;;;10.00;;
35757;SDS011;21879;50.110;18.900;2022-08-19T22:29:57;13.80;;;9.90;;
35757;SDS011;21879;50.110;18.900;2022-08-19T22:40:29;11.30;;;9.20;;
35757;SDS011;21879;50.110;18.900;2022-08-19T22:50:58;14.30;;;10.20;;
35757;SDS011;21879;50.110;18.900;2022-08-19T23:12:12;13.30;;;10.10;;
35757;SDS011;21879;50.110;18.900;2022-08-19T23:22:42;15.30;;;11.30;;
35757;SDS011;21879;50.110;18.900;2022-08-19T23:33:17;13.60;;;10.40;;
35757;SDS011;21879;50.110;18.900;2022-08-19T23:54:19;11.80;;;10.50;;
